Time;durP1;ratioP1;P1;durP2;ratioP2;P2;SDS_P1;SDS_P2;PMS_P1;PMS_P2;Temp;Humidity;BMP_temperature;BMP_pressure;BME280_temperature;BME280_humidity;BME280_pressure;Samples;Min_cycle;Max_cycle;Signal;HPM_P1;HPM_P2
2024/01/29 00:00:26;;;;;;;8.30;6.35;;;;;;;3.31;84.67;99348.06;4234648;27;20223;-80
2024/01/29 00:02:30;;;;;;;8.95;6.30;;;;;;;3.28;84.76;99336.09;4256796;27;20268;-81
2024/01/29 00:04:33;;;;;;;8.80;6.10;;;;;;;3.27;84.72;99344.69;4251996;27;20198;-80
2024/01/29 00:06:37;;;;;;;7.13;5.80;;;;;;;3.28;84.36;99337.81;4235372;27;20219;-80
2024/01/29 00:08:41;;;;;;;11.60;5.88;;;;;;;3.27;84.71;99335.28;4258509;27;20232;-81
2024/01/29 00:10:43;;;;;;;8.70;6.53;;;;;;;3.27;84.31;99336.94;4235841;27;20676;-81
2024/01/29 00:12:47;;;;;;;8.48;6.30;;;;;;;3.25;84.46;99340.47;4253682;27;20227;-81
2024/01/29 00:14:50;;;;;;;8.73;5.80;;;;;;;3.24;85.10;99328.44;4219918;28;20204;-81
2024/01/29 00:16:53;;;;;;;11.18;6.10;;;;;;;3.25;84.90;99337.88;4231022;27;20207;-81
2024/01/29 00:18:56;;;;;;;8.85;5.97;;;;;;;3.26;84.53;99328.41;4251134;27;20195;-81
2024/01/29 00:21:00;;;;;;;7.70;5.70;;;;;;;3.24;85.11;99325.03;4250205;27;20290;-81
2024/01/29 00:23:03;;;;;;;9.68;6.20;;;;;;;3.24;84.48;99325.88;4223143;27;20329;-80
2024/01/29 00:25:09;;;;;;;9.20;5.90;;;;;;;3.23;84.90;99323.31;4237082;27;20200;-81
2024/01/29 00:27:12;;;;;;;9.05;6.22;;;;;;;3.22;84.57;99324.19;4243884;27;20203;-81
2024/01/29 00:29:15;;;;;;;6.45;5.50;;;;;;;3.18;84.71;99314.84;4237391;27;20253;-80
2024/01/29 00:31:18;;;;;;;10.00;6.35;;;;;;;3.17;84.70;99319.13;4259603;27;20282;-81
2024/01/29 00:33:22;;;;;;;9.10;6.22;;;;;;;3.17;85.35;99324.28;4236280;27;20213;-80
2024/01/29 00:35:26;;;;;;;9.35;6.05;;;;;;;3.17;85.18;99319.13;4231785;27;20228;-80
2024/01/29 00:37:30;;;;;;;6.78;5.32;;;;;;;3.15;85.19;99318.31;4217007;27;20257;-80
2024/01/29 00:39:33;;;;;;;7.47;5.90;;;;;;;3.17;85.33;99318.28;4232813;27;20677;-80
2024/01/29 00:41:37;;;;;;;6.55;5.15;;;;;;;3.15;85.35;99317.47;4255283;27;20669;-80
2024/01/29 00:43:41;;;;;;;7.90;5.60;;;;;;;3.15;85.24;99314.91;4234934;27;20204;-81
2024/01/29 00:45:44;;;;;;;7.90;5.40;;;;;;;3.12;85.27;99314.97;4251670;27;20209;-81
2024/01/29 00:47:47;;;;;;;10.63;5.70;;;;;;;3.10;84.72;99309.84;4234825;27;20276;-81
2024/01/29 00:49:50;;;;;;;6.80;5.50;;;;;;;3.11;84.69;99311.53;4240216;27;20662;-80
2024/01/29 00:51:53;;;;;;;8.43;5.80;;;;;;;3.10;84.97;99316.72;4220060;27;20254;-80
2024/01/29 00:53:57;;;;;;;7.20;5.78;;;;;;;3.09;84.78;99313.28;4234104;27;20234;-82
2024/01/29 00:56:00;;;;;;;8.05;5.75;;;;;;;3.09;84.93;99320.16;4235472;27;20227;-82
2024/01/29 00:58:05;;;;;;;6.47;5.40;;;;;;;3.08;85.06;99319.34;4219124;28;20196;-82
2024/01/29 01:00:10;;;;;;;11.00;5.95;;;;;;;3.05;85.33;99315.94;4239357;27;20987;-81
2024/01/29 01:02:13;;;;;;;7.80;5.88;;;;;;;3.06;84.84;99322.81;4248366;27;20210;-82
2024/01/29 01:04:17;;;;;;;8.75;5.90;;;;;;;3.07;85.10;99321.94;4233976;27;20200;-82
2024/01/29 01:06:20;;;;;;;8.82;5.63;;;;;;;3.03;84.95;99323.69;4255205;27;20729;-82
2024/01/29 01:08:24;;;;;;;6.70;5.32;;;;;;;3.04;85.08;99324.56;4232129;27;20224;-82
2024/01/29 01:10:27;;;;;;;9.15;5.90;;;;;;;3.03;84.87;99322.88;4220606;28;20247;-82
2024/01/29 01:12:31;;;;;;;8.18;5.53;;;;;;;3.04;85.31;99327.16;4218464;28;20215;-82
2024/01/29 01:14:35;;;;;;;7.05;5.40;;;;;;;3.03;85.10;99321.13;4237542;27;20234;-82
2024/01/29 01:16:40;;;;;;;11.60;5.70;;;;;;;3.01;85.18;99328.03;4234863;27;20230;-82
2024/01/29 01:18:44;;;;;;;8.68;6.18;;;;;;;3.03;85.53;99322.88;4212625;28;20654;-82
2024/01/29 01:20:47;;;;;;;7.95;5.50;;;;;;;3.02;85.45;99323.72;4223932;28;20204;-82
2024/01/29 01:22:50;;;;;;;6.68;5.50;;;;;;;3.02;85.86;99322.03;4222028;28;20259;-82
2024/01/29 01:24:53;;;;;;;7.53;5.47;;;;;;;3.03;85.85;99335.75;4220377;28;20665;-82
2024/01/29 01:26:56;;;;;;;7.68;5.30;;;;;;;3.03;85.80;99325.44;4233987;27;20228;-82
2024/01/29 01:28:59;;;;;;;7.15;5.40;;;;;;;3.07;85.46;99327.09;4249765;27;20223;-82
2024/01/29 01:31:05;;;;;;;7.50;5.68;;;;;;;3.05;86.03;99328.81;4228956;27;20234;-82
2024/01/29 01:33:08;;;;;;;6.72;5.85;;;;;;;3.03;85.99;99330.59;4256328;27;20202;-82
2024/01/29 01:35:11;;;;;;;8.65;5.35;;;;;;;3.03;85.78;99331.44;4235574;27;20308;-82
2024/01/29 01:37:15;;;;;;;9.80;5.82;;;;;;;3.02;85.83;99329.75;4251017;27;20221;-82
2024/01/29 01:39:18;;;;;;;7.68;5.90;;;;;;;3.00;86.06;99325.50;4254778;27;20198;-82
2024/01/29 01:41:22;;;;;;;7.05;5.15;;;;;;;2.98;86.23;99328.09;4222106;27;20224;-82
2024/01/29 01:43:25;;;;;;;8.48;5.53;;;;;;;2.98;85.94;99322.94;4254725;27;20257;-82
2024/01/29 01:45:28;;;;;;;9.63;5.80;;;;;;;2.98;86.31;99322.94;4255012;27;20682;-82
2024/01/29 01:47:33;;;;;;;7.32;5.30;;;;;;;2.98;86.43;99317.78;4246489;27;20203;-82
2024/01/29 01:49:36;;;;;;;7.82;5.35;;;;;;;2.99;85.68;99324.66;4249442;27;20656;-82
2024/01/29 01:51:40;;;;;;;8.38;5.20;;;;;;;2.97;85.78;99320.41;4234546;27;20704;-82
2024/01/29 01:53:45;;;;;;;8.85;5.38;;;;;;;2.95;85.74;99332.47;4261040;27;20222;-82
2024/01/29 01:55:48;;;;;;;8.00;6.30;;;;;;;2.94;85.98;99331.59;4238833;27;20290;-82
2024/01/29 01:57:52;;;;;;;6.25;5.20;;;;;;;2.93;86.08;99336.78;4256196;27;20711;-82
2024/01/29 01:59:55;;;;;;;6.47;5.35;;;;;;;2.93;86.45;99332.50;4255958;27;20213;-82
2024/01/29 02:01:59;;;;;;;7.65;5.43;;;;;;;2.92;86.05;99329.94;4255725;27;20302;-82
2024/01/29 02:04:04;;;;;;;8.15;5.93;;;;;;;2.90;86.46;99334.25;4248638;27;20259;-82
2024/01/29 02:06:07;;;;;;;7.63;5.82;;;;;;;2.89;86.19;99335.16;4235858;27;20219;-82
2024/01/29 02:08:11;;;;;;;6.85;5.07;;;;;;;2.90;86.46;99329.09;4256344;27;20197;-82
2024/01/29 02:10:14;;;;;;;7.90;5.40;;;;;;;2.87;86.33;99330.03;4255389;27;20699;-82
2024/01/29 02:12:19;;;;;;;6.75;5.30;;;;;;;2.86;86.33;99325.75;4253779;27;20209;-82
2024/01/29 02:14:22;;;;;;;9.35;5.85;;;;;;;2.84;86.26;99330.09;4258169;27;20198;-82
2024/01/29 02:16:25;;;;;;;8.88;5.88;;;;;;;2.84;85.96;99335.25;4238335;27;20223;-82
2024/01/29 02:18:29;;;;;;;8.95;5.63;;;;;;;2.83;86.30;99333.53;4258847;27;20204;-82
2024/01/29 02:20:33;;;;;;;8.25;5.40;;;;;;;2.82;85.72;99323.25;4237236;27;20203;-82
2024/01/29 02:22:42;;;;;;;8.63;5.28;;;;;;;2.82;86.55;99325.84;4222974;27;20701;-82
2024/01/29 02:24:44;;;;;;;7.85;5.28;;;;;;;2.81;86.31;99329.28;4225248;27;20216;-82
2024/01/29 02:26:48;;;;;;;8.48;5.85;;;;;;;2.80;86.07;99323.28;4237349;27;20256;-82
2024/01/29 02:28:51;;;;;;;6.72;5.22;;;;;;;2.76;86.25;99325.94;4238592;27;20204;-82
2024/01/29 02:30:54;;;;;;;6.78;5.38;;;;;;;2.76;85.96;99325.94;4234721;27;20307;-82
2024/01/29 02:32:58;;;;;;;7.30;5.78;;;;;;;2.76;86.19;99325.94;4217397;27;20244;-82
2024/01/29 02:35:02;;;;;;;8.43;5.40;;;;;;;2.76;86.28;99328.53;4225649;27;20723;-82
2024/01/29 02:37:05;;;;;;;7.32;5.07;;;;;;;2.77;86.53;99322.50;4236772;27;20223;-82
2024/01/29 02:39:09;;;;;;;9.30;5.88;;;;;;;2.75;87.02;99331.13;4237331;27;20201;-82
2024/01/29 02:41:12;;;;;;;7.43;5.30;;;;;;;2.76;86.75;99328.53;4235301;27;20872;-82
2024/01/29 02:43:16;;;;;;;8.38;5.10;;;;;;;2.76;86.95;99325.94;4244675;27;20191;-82
2024/01/29 02:45:19;;;;;;;6.45;5.38;;;;;;;2.76;86.86;99320.78;4243471;27;20232;-82
2024/01/29 02:47:23;;;;;;;8.80;5.65;;;;;;;2.75;86.60;99323.41;4227724;27;20212;-82
2024/01/29 02:49:26;;;;;;;11.18;5.35;;;;;;;2.74;86.55;99325.13;4248597;27;20199;-82
2024/01/29 02:51:29;;;;;;;8.45;5.38;;;;;;;2.73;86.71;99318.28;4224965;27;20203;-82
2024/01/29 02:53:32;;;;;;;8.65;5.90;;;;;;;2.73;86.60;99318.28;4241037;27;20203;-82
2024/01/29 02:55:37;;;;;;;8.30;5.55;;;;;;;2.72;86.74;99321.75;4237593;27;20199;-82
2024/01/29 02:57:40;;;;;;;10.35;5.63;;;;;;;2.72;86.07;99326.91;4259948;27;20219;-82
2024/01/29 02:59:43;;;;;;;6.93;5.15;;;;;;;2.71;86.61;99317.47;4254729;27;20617;-82
2024/01/29 03:01:46;;;;;;;6.93;5.57;;;;;;;2.69;86.58;99314.06;4234944;27;20211;-82
2024/01/29 03:03:49;;;;;;;6.32;4.75;;;;;;;2.69;86.62;99319.22;4254917;27;20291;-82
2024/01/29 03:05:53;;;;;;;7.95;5.10;;;;;;;2.68;86.13;99317.50;4235411;27;20212;-82
2024/01/29 03:07:55;;;;;;;8.18;5.40;;;;;;;2.66;86.40;99324.44;4253878;27;20583;-82
2024/01/29 03:09:58;;;;;;;6.88;5.28;;;;;;;2.65;86.69;99317.56;4226140;27;20704;-82
2024/01/29 03:12:03;;;;;;;6.38;5.03;;;;;;;2.65;86.73;99321.88;4235884;27;20199;-82
2024/01/29 03:14:06;;;;;;;7.63;5.75;;;;;;;2.65;86.14;99322.72;4237246;27;20295;-82
2024/01/29 03:16:09;;;;;;;8.90;5.45;;;;;;;2.62;86.53;99316.78;4239436;27;20200;-82
2024/01/29 03:18:13;;;;;;;6.93;4.90;;;;;;;2.62;86.54;99322.78;4244110;27;20261;-82
2024/01/29 03:20:16;;;;;;;7.50;5.30;;;;;;;2.64;86.92;99322.75;4251613;27;20245;-82
2024/01/29 03:22:19;;;;;;;8.77;5.32;;;;;;;2.65;86.47;99330.44;4257403;27;20214;-82
2024/01/29 03:24:22;;;;;;;6.28;5.10;;;;;;;2.61;86.17;99326.22;4238608;27;20663;-82
2024/01/29 03:26:26;;;;;;;7.30;5.50;;;;;;;2.57;86.34;99324.59;4238116;27;20207;-82
2024/01/29 03:28:30;;;;;;;8.35;5.97;;;;;;;2.58;86.72;99325.41;4218002;28;20218;-82
2024/01/29 03:30:33;;;;;;;8.02;5.28;;;;;;;2.58;86.49;99323.69;4250794;27;20207;-82
2024/01/29 03:32:36;;;;;;;7.78;5.00;;;;;;;2.55;86.27;99316.00;4253413;27;20258;-82
2024/01/29 03:34:41;;;;;;;10.43;5.35;;;;;;;2.52;86.76;99316.06;4251014;27;20282;-82
2024/01/29 03:36:47;;;;;;;7.20;5.03;;;;;;;2.51;86.44;99309.25;4243530;27;20286;-82
2024/01/29 03:38:50;;;;;;;8.57;5.10;;;;;;;2.50;86.58;99315.25;4225200;27;20206;-82
2024/01/29 03:40:53;;;;;;;6.85;5.45;;;;;;;2.52;86.53;99310.91;4247130;27;20235;-82
2024/01/29 03:42:56;;;;;;;7.25;5.20;;;;;;;2.50;86.58;99309.28;4238507;27;20207;-82
2024/01/29 03:45:03;;;;;;;7.53;6.05;;;;;;;2.48;86.72;99304.16;4235622;27;20200;-82
2024/01/29 03:47:06;;;;;;;6.80;5.20;;;;;;;2.45;86.96;99314.50;4234782;27;20199;-82
2024/01/29 03:49:09;;;;;;;8.52;5.50;;;;;;;2.44;87.25;99317.94;4223310;27;20690;-82
2024/01/29 03:51:12;;;;;;;10.93;5.88;;;;;;;2.45;87.01;99314.50;4254940;27;20238;-82
2024/01/29 03:53:15;;;;;;;7.05;5.05;;;;;;;2.46;87.19;99320.47;4233410;27;20218;-82
2024/01/29 03:55:18;;;;;;;7.88;5.43;;;;;;;2.43;87.25;99317.97;4231190;27;20196;-82
2024/01/29 03:57:22;;;;;;;8.55;6.20;;;;;;;2.44;86.94;99317.09;4232614;27;20219;-82
2024/01/29 03:59:25;;;;;;;8.20;5.38;;;;;;;2.46;87.20;99320.47;4231017;27;20207;-82
2024/01/29 04:01:30;;;;;;;7.03;4.50;;;;;;;2.44;87.08;99317.94;4250606;27;20224;-82
2024/01/29 04:03:33;;;;;;;6.97;5.50;;;;;;;2.47;87.09;99319.63;4235056;27;20204;-82
2024/01/29 04:05:37;;;;;;;8.82;5.70;;;;;;;2.47;87.10;99320.47;4232752;27;20196;-82
2024/01/29 04:07:39;;;;;;;7.30;5.65;;;;;;;2.46;87.22;99317.91;4253072;27;20203;-83
2024/01/29 04:09:42;;;;;;;7.63;5.25;;;;;;;2.47;87.47;99317.88;4250712;27;20229;-82
2024/01/29 04:11:44;;;;;;;9.07;6.05;;;;;;;2.46;87.28;99315.34;4252327;27;20207;-82
2024/01/29 04:13:48;;;;;;;7.35;5.35;;;;;;;2.45;87.10;99313.63;4221370;27;20200;-82
2024/01/29 04:15:50;;;;;;;7.82;5.05;;;;;;;2.42;86.71;99321.41;4250465;27;20203;-82
2024/01/29 04:17:55;;;;;;;7.30;5.38;;;;;;;2.42;86.65;99313.69;4241514;27;20223;-82
2024/01/29 04:19:58;;;;;;;7.65;4.97;;;;;;;2.39;86.50;99322.31;4234468;27;20211;-82
2024/01/29 04:22:01;;;;;;;6.85;5.07;;;;;;;2.36;86.74;99314.66;4252722;27;20216;-82
2024/01/29 04:24:05;;;;;;;8.60;5.85;;;;;;;2.34;87.18;99323.25;4253847;27;20206;-80
2024/01/29 04:26:08;;;;;;;6.72;5.53;;;;;;;2.38;86.98;99319.78;4222074;27;20319;-80
2024/01/29 04:28:11;;;;;;;6.95;5.50;;;;;;;2.38;87.14;99320.59;4256406;27;20203;-80
2024/01/29 04:30:14;;;;;;;8.00;5.40;;;;;;;2.35;87.35;99312.94;4250547;27;20206;-80
2024/01/29 04:32:17;;;;;;;7.50;5.10;;;;;;;2.34;87.48;99321.53;4236431;27;20263;-80
2024/01/29 04:34:21;;;;;;;6.75;5.35;;;;;;;2.37;87.94;99321.47;4258669;27;20277;-81
2024/01/29 04:36:24;;;;;;;7.10;5.50;;;;;;;2.41;87.65;99323.13;4234530;27;20200;-80
2024/01/29 04:38:28;;;;;;;7.43;5.40;;;;;;;2.44;87.79;99317.94;4233258;27;20589;-80
2024/01/29 04:40:33;;;;;;;7.97;5.15;;;;;;;2.42;86.97;99318.81;4249069;27;20200;-80
2024/01/29 04:42:36;;;;;;;7.10;5.03;;;;;;;2.40;87.13;99315.44;4237112;27;20682;-81
2024/01/29 04:44:38;;;;;;;8.25;5.22;;;;;;;2.37;86.98;99315.50;4241026;27;20295;-80
2024/01/29 04:46:41;;;;;;;8.45;5.80;;;;;;;2.39;87.07;99318.88;4254282;27;20297;-80
2024/01/29 04:48:44;;;;;;;8.55;5.35;;;;;;;2.39;86.80;99311.16;4254956;27;20225;-80
2024/01/29 04:50:49;;;;;;;8.90;5.55;;;;;;;2.38;86.67;99318.03;4236958;27;20727;-80
2024/01/29 04:52:52;;;;;;;8.80;5.90;;;;;;;2.35;86.71;99315.50;4220205;27;20567;-80
2024/01/29 04:54:56;;;;;;;10.57;6.88;;;;;;;2.34;87.04;99312.97;4234434;27;20638;-79
2024/01/29 04:56:59;;;;;;;11.55;6.40;;;;;;;2.35;87.28;99315.50;4253009;27;20257;-80
2024/01/29 04:59:01;;;;;;;11.02;5.65;;;;;;;2.34;87.32;99316.38;4240470;27;20650;-80
2024/01/29 05:01:05;;;;;;;8.85;6.38;;;;;;;2.37;87.40;99310.34;4251257;27;20599;-80
2024/01/29 05:03:07;;;;;;;9.05;5.75;;;;;;;2.31;86.51;99314.75;4219279;28;20204;-80
2024/01/29 05:05:10;;;;;;;8.45;5.75;;;;;;;2.27;86.58;99313.09;4236194;27;20263;-81
2024/01/29 05:07:15;;;;;;;8.77;5.63;;;;;;;2.27;86.74;99319.09;4236000;27;20325;-81
2024/01/29 05:09:19;;;;;;;9.18;6.05;;;;;;;2.27;86.69;99323.38;4219996;28;20215;-80
2024/01/29 05:11:22;;;;;;;10.20;5.75;;;;;;;2.26;86.66;99322.53;4256513;27;20195;-80
2024/01/29 05:13:25;;;;;;;9.00;6.07;;;;;;;2.27;86.67;99320.81;4232345;27;20212;-81
2024/01/29 05:15:28;;;;;;;9.80;5.90;;;;;;;2.27;86.92;99326.81;4235192;27;20824;-80
2024/01/29 05:17:31;;;;;;;9.13;6.38;;;;;;;2.28;87.01;99328.50;4224906;27;20293;-80
2024/01/29 05:19:35;;;;;;;8.77;6.55;;;;;;;2.29;87.45;99326.81;4254378;27;20667;-80
2024/01/29 05:21:37;;;;;;;12.02;7.13;;;;;;;2.28;87.46;99331.06;4239016;27;20513;-80
2024/01/29 05:23:41;;;;;;;10.20;5.65;;;;;;;2.30;87.68;99334.50;4237017;27;20237;-80
2024/01/29 05:25:44;;;;;;;7.95;5.57;;;;;;;2.29;87.75;99343.06;4256742;27;20241;-80
2024/01/29 05:27:47;;;;;;;9.23;6.03;;;;;;;2.30;87.38;99341.34;4237585;27;20207;-80
2024/01/29 05:29:50;;;;;;;9.30;6.28;;;;;;;2.28;87.47;99336.22;4241684;27;20609;-80
2024/01/29 05:31:53;;;;;;;6.75;5.68;;;;;;;2.29;87.60;99339.66;4224526;27;20208;-81
2024/01/29 05:33:56;;;;;;;10.60;5.40;;;;;;;2.30;87.46;99341.34;4238694;27;20210;-80
2024/01/29 05:35:59;;;;;;;7.82;5.20;;;;;;;2.32;87.88;99343.03;4243444;27;20207;-80
2024/01/29 05:38:03;;;;;;;9.88;6.10;;;;;;;2.33;87.86;99339.59;4249702;27;20560;-80
2024/01/29 05:40:11;;;;;;;12.07;8.48;;;;;;;2.34;87.67;99342.09;4259944;27;20210;-80
2024/01/29 05:42:14;;;;;;;24.95;15.93;;;;;;;2.36;88.12;99345.53;4232934;27;20202;-81
2024/01/29 05:44:17;;;;;;;19.25;12.15;;;;;;;2.36;87.92;99340.38;4235905;27;20295;-80
2024/01/29 05:46:20;;;;;;;19.83;14.20;;;;;;;2.36;87.72;99350.69;4252733;27;20219;-80
2024/01/29 05:48:23;;;;;;;15.18;11.50;;;;;;;2.39;88.11;99342.03;4254172;27;20204;-80
2024/01/29 05:50:25;;;;;;;13.10;8.77;;;;;;;2.38;87.81;99348.91;4227319;27;20227;-80
2024/01/29 05:52:28;;;;;;;11.35;7.25;;;;;;;2.37;87.43;99346.38;4254761;27;20241;-81
2024/01/29 05:54:32;;;;;;;10.95;6.88;;;;;;;2.36;87.96;99345.53;4254006;27;20203;-80
2024/01/29 05:56:40;;;;;;;9.65;6.60;;;;;;;2.36;87.55;99345.53;4223458;27;20199;-81
2024/01/29 05:58:44;;;;;;;8.10;5.85;;;;;;;2.37;87.87;99352.34;4242693;27;20223;-81
2024/01/29 06:00:47;;;;;;;8.52;5.47;;;;;;;2.34;87.60;99351.56;4252334;27;20201;-80
2024/01/29 06:02:51;;;;;;;8.85;5.47;;;;;;;2.34;87.40;99346.41;4253679;27;20234;-80
2024/01/29 06:04:54;;;;;;;7.53;5.40;;;;;;;2.37;87.67;99344.63;4233895;27;20211;-80
2024/01/29 06:06:57;;;;;;;7.82;5.60;;;;;;;2.39;87.59;99347.19;4258608;27;20581;-80
2024/01/29 06:09:00;;;;;;;9.25;5.00;;;;;;;2.39;88.05;99353.19;4219833;27;20199;-80
2024/01/29 06:11:03;;;;;;;8.07;5.32;;;;;;;2.37;87.97;99348.94;4254038;27;20199;-80
2024/01/29 06:13:07;;;;;;;7.70;5.97;;;;;;;2.36;87.88;99350.69;4220400;27;20234;-80
2024/01/29 06:15:11;;;;;;;7.90;5.40;;;;;;;2.38;87.92;99355.78;4254249;27;20304;-80
2024/01/29 06:17:14;;;;;;;7.43;5.10;;;;;;;2.39;87.46;99353.19;4257385;27;20665;-80
2024/01/29 06:19:18;;;;;;;6.32;4.85;;;;;;;2.40;87.30;99348.88;4241389;27;20247;-80
2024/01/29 06:21:22;;;;;;;7.10;4.57;;;;;;;2.39;87.27;99350.63;4248051;27;20268;-80
2024/01/29 06:23:27;;;;;;;10.00;5.63;;;;;;;2.38;87.55;99358.38;4236152;27;20200;-80
2024/01/29 06:25:30;;;;;;;9.50;5.63;;;;;;;2.35;87.59;99355.84;4237654;27;20200;-80
2024/01/29 06:27:33;;;;;;;7.70;4.82;;;;;;;2.34;87.12;99352.41;4239071;27;20800;-79
2024/01/29 06:29:38;;;;;;;8.70;6.13;;;;;;;2.33;87.57;99350.72;4253765;27;20668;-81
2024/01/29 06:31:41;;;;;;;8.90;5.55;;;;;;;2.36;87.89;99354.94;4240003;27;20557;-81
2024/01/29 06:33:44;;;;;;;9.00;6.18;;;;;;;2.35;87.52;99348.97;4253823;27;20283;-80
2024/01/29 06:35:48;;;;;;;8.48;5.65;;;;;;;2.38;87.85;99348.91;4251688;27;20196;-80
2024/01/29 06:37:51;;;;;;;9.07;5.40;;;;;;;2.41;87.44;99358.31;4254018;27;20318;-80
2024/01/29 06:39:54;;;;;;;9.20;6.05;;;;;;;2.39;88.06;99353.19;4251707;27;20591;-79
2024/01/29 06:41:57;;;;;;;8.07;5.72;;;;;;;2.43;88.09;99356.56;4234326;27;20212;-80
2024/01/29 06:44:00;;;;;;;8.68;5.85;;;;;;;2.43;88.29;99354.00;4242793;27;20208;-83
2024/01/29 06:46:05;;;;;;;10.18;6.28;;;;;;;2.43;88.10;99356.56;4237853;27;20271;-83
2024/01/29 06:48:08;;;;;;;8.35;6.65;;;;;;;2.45;88.43;99365.09;4221861;27;20684;-83
2024/01/29 06:50:11;;;;;;;7.97;5.53;;;;;;;2.47;87.96;99366.78;4252789;27;20195;-82
2024/01/29 06:52:15;;;;;;;9.35;6.78;;;;;;;2.48;87.86;99365.03;4240304;27;20310;-82
2024/01/29 06:54:21;;;;;;;8.43;5.10;;;;;;;2.45;87.65;99359.94;4253904;27;20203;-82
2024/01/29 06:56:24;;;;;;;8.65;6.40;;;;;;;2.41;87.88;99359.16;4249618;27;20200;-83
2024/01/29 06:58:27;;;;;;;6.88;6.07;;;;;;;2.42;87.63;99360.00;4222528;27;20212;-82
2024/01/29 07:00:30;;;;;;;11.90;5.70;;;;;;;2.46;87.23;99372.78;4235692;27;20819;-82
2024/01/29 07:02:35;;;;;;;10.00;5.85;;;;;;;2.46;87.81;99372.78;4252353;27;20676;-82
2024/01/29 07:04:38;;;;;;;8.23;6.68;;;;;;;2.47;87.91;99374.50;4237090;27;20211;-82
2024/01/29 07:06:43;;;;;;;8.88;5.88;;;;;;;2.49;87.69;99377.91;4239805;27;20203;-82
2024/01/29 07:08:46;;;;;;;8.48;5.97;;;;;;;2.53;87.78;99379.56;4261613;27;20293;-82
2024/01/29 07:10:49;;;;;;;6.20;5.55;;;;;;;2.55;88.11;99385.50;4254918;27;20205;-82
2024/01/29 07:12:52;;;;;;;9.48;6.10;;;;;;;2.59;87.94;99387.19;4254114;27;20667;-82
2024/01/29 07:14:56;;;;;;;9.57;5.90;;;;;;;2.65;88.26;99386.25;4255752;27;20211;-83
2024/01/29 07:16:58;;;;;;;8.48;6.32;;;;;;;2.70;87.76;99393.00;4232682;27;20378;-84
2024/01/29 07:19:02;;;;;;;8.65;6.43;;;;;;;2.82;87.67;99387.63;4236355;27;20976;-82
2024/01/29 07:21:06;;;;;;;9.02;6.38;;;;;;;2.97;87.16;99402.84;4250732;27;20229;-82
2024/01/29 07:23:10;;;;;;;11.50;7.15;;;;;;;3.10;86.85;99404.31;4221970;27;20633;-81
2024/01/29 07:25:12;;;;;;;7.60;6.25;;;;;;;3.23;86.88;99403.22;4254011;27;20229;-81
2024/01/29 07:27:16;;;;;;;8.40;6.68;;;;;;;3.34;86.07;99408.13;4251748;27;20286;-81
2024/01/29 07:29:22;;;;;;;9.00;6.43;;;;;;;3.46;85.79;99405.31;4234059;27;20241;-82
2024/01/29 07:31:25;;;;;;;8.93;6.10;;;;;;;3.56;85.79;99404.25;4226998;27;21233;-82
2024/01/29 07:33:28;;;;;;;11.18;6.45;;;;;;;3.66;84.87;99402.34;4238242;27;20667;-83
2024/01/29 07:35:33;;;;;;;9.00;6.78;;;;;;;3.77;85.10;99409.84;4251891;27;20206;-83
2024/01/29 07:37:36;;;;;;;10.18;7.50;;;;;;;3.86;85.06;99408.78;4236984;27;20208;-83
2024/01/29 07:39:40;;;;;;;10.35;7.60;;;;;;;3.95;84.33;99409.44;4224405;27;20220;-84
2024/01/29 07:41:43;;;;;;;12.60;8.60;;;;;;;4.03;84.88;99414.44;4218422;27;20211;-83
2024/01/29 07:43:45;;;;;;;13.43;8.80;;;;;;;4.07;84.53;99416.91;4253362;27;20199;-83
2024/01/29 07:45:48;;;;;;;9.32;6.88;;;;;;;4.11;83.87;99422.88;4239294;27;20752;-84
2024/01/29 07:47:52;;;;;;;10.73;7.57;;;;;;;4.07;83.84;99421.25;4230184;27;20200;-82
2024/01/29 07:49:55;;;;;;;10.35;8.57;;;;;;;4.09;83.96;99419.47;4231587;27;20726;-82
2024/01/29 07:52:00;;;;;;;11.82;7.95;;;;;;;4.10;83.79;99426.34;4221222;27;20685;-83
2024/01/29 07:54:03;;;;;;;10.88;8.68;;;;;;;4.11;84.32;99421.16;4232366;27;20208;-83
2024/01/29 07:56:07;;;;;;;9.57;7.35;;;;;;;4.15;84.31;99429.66;4216011;28;20262;-83
2024/01/29 07:58:09;;;;;;;10.00;7.32;;;;;;;4.18;84.64;99429.59;4252505;27;20195;-83
2024/01/29 08:00:14;;;;;;;10.45;7.68;;;;;;;4.23;84.10;99434.63;4237978;27;20597;-83
2024/01/29 08:02:17;;;;;;;9.73;7.20;;;;;;;4.24;84.71;99441.50;4237387;27;20455;-82
2024/01/29 08:04:20;;;;;;;12.45;7.43;;;;;;;4.28;83.99;99440.56;4256040;27;20199;-83
2024/01/29 08:06:23;;;;;;;12.23;7.57;;;;;;;4.38;84.48;99439.44;4240729;27;20370;-83
2024/01/29 08:08:28;;;;;;;10.55;7.68;;;;;;;4.45;84.48;99446.19;4257668;27;20833;-82
2024/01/29 08:10:32;;;;;;;9.45;6.47;;;;;;;4.59;84.27;99449.28;4219849;27;20298;-82
2024/01/29 08:12:35;;;;;;;12.63;6.80;;;;;;;4.71;84.02;99444.69;4230462;27;20203;-82
2024/01/29 08:14:38;;;;;;;10.45;6.97;;;;;;;4.82;84.36;99452.19;4228550;27;20208;-82
2024/01/29 08:16:44;;;;;;;13.85;9.07;;;;;;;4.96;84.00;99450.09;4221096;28;20287;-82
2024/01/29 08:18:47;;;;;;;17.90;10.90;;;;;;;5.10;83.57;99456.66;4251111;27;20231;-82
2024/01/29 08:20:51;;;;;;;10.43;6.97;;;;;;;5.25;83.41;99456.25;4225114;27;20212;-82
2024/01/29 08:22:54;;;;;;;11.75;7.85;;;;;;;5.34;82.28;99454.28;4217664;27;20639;-82
2024/01/29 08:25:00;;;;;;;18.67;13.20;;;;;;;5.40;81.78;99451.53;4250964;27;20234;-84
2024/01/29 08:27:02;;;;;;;18.17;10.70;;;;;;;5.47;81.52;99459.97;4249842;27;20230;-83
2024/01/29 08:29:06;;;;;;;12.18;6.97;;;;;;;5.53;82.01;99465.81;4254129;27;20198;-82
2024/01/29 08:31:10;;;;;;;8.80;7.53;;;;;;;5.56;80.82;99454.56;4253934;27;20200;-83
2024/01/29 08:33:13;;;;;;;13.63;7.82;;;;;;;5.63;80.55;99452.59;4255502;27;20554;-83
2024/01/29 08:35:17;;;;;;;12.20;7.72;;;;;;;5.73;81.64;99455.81;4238526;27;20665;-86
2024/01/29 08:37:20;;;;;;;12.20;8.02;;;;;;;5.87;81.35;99461.50;4253848;27;20249;-85
2024/01/29 08:39:23;;;;;;;13.48;8.27;;;;;;;6.00;80.95;99457.63;4237841;27;20287;-87
2024/01/29 08:41:28;;;;;;;11.90;8.30;;;;;;;6.06;79.45;99457.47;4252447;27;20264;-86
2024/01/29 08:43:31;;;;;;;16.15;11.90;;;;;;;6.14;79.77;99459.78;4256408;27;20208;-85
2024/01/29 08:45:35;;;;;;;10.10;7.97;;;;;;;6.24;78.77;99469.00;4235523;27;20241;-83
2024/01/29 08:47:38;;;;;;;18.77;12.13;;;;;;;6.29;79.39;99461.94;4239523;27;20235;-84
2024/01/29 08:49:40;;;;;;;12.30;8.65;;;;;;;6.35;79.22;99464.34;4234607;27;20197;-83
2024/01/29 08:51:44;;;;;;;11.00;7.75;;;;;;;6.37;78.47;99457.38;4234567;27;20211;-84
2024/01/29 08:53:48;;;;;;;15.85;9.60;;;;;;;6.45;78.37;99458.00;4247370;27;20298;-83
2024/01/29 08:55:51;;;;;;;15.65;10.38;;;;;;;6.50;78.53;99461.31;4255350;27;20288;-83
2024/01/29 08:57:54;;;;;;;13.88;8.55;;;;;;;6.47;79.14;99463.16;4252648;27;20223;-84
2024/01/29 08:59:57;;;;;;;10.40;7.97;;;;;;;6.47;79.92;99463.16;4239979;27;20205;-84
2024/01/29 09:02:01;;;;;;;10.48;8.13;;;;;;;6.47;79.37;99461.41;4220211;28;20257;-83
2024/01/29 09:04:03;;;;;;;10.68;7.03;;;;;;;6.51;79.45;99465.59;4235355;27;20201;-80
2024/01/29 09:06:07;;;;;;;11.00;7.65;;;;;;;6.61;79.57;99480.81;4234308;27;20267;-80
2024/01/29 09:08:10;;;;;;;8.95;7.35;;;;;;;6.76;80.19;99484.69;4252708;27;20213;-80
2024/01/29 09:10:21;;;;;;;11.50;7.97;;;;;;;6.89;79.66;99492.03;4217216;28;20217;-81
2024/01/29 09:12:23;;;;;;;10.63;7.60;;;;;;;6.97;77.51;99489.19;4257358;27;20679;-80
2024/01/29 09:14:27;;;;;;;11.82;7.78;;;;;;;7.00;77.75;99489.09;4228582;27;20211;-79
2024/01/29 09:16:32;;;;;;;12.73;8.55;;;;;;;7.10;79.34;99494.78;4233583;27;20235;-81
2024/01/29 09:18:34;;;;;;;18.42;12.65;;;;;;;7.22;78.01;99502.16;4236288;27;20215;-80
2024/01/29 09:20:37;;;;;;;11.48;8.93;;;;;;;7.25;77.60;99504.66;4233975;27;20352;-80
2024/01/29 09:22:40;;;;;;;10.57;8.10;;;;;;;7.27;78.45;99499.44;4253199;27;20246;-80
2024/01/29 09:24:44;;;;;;;11.73;8.80;;;;;;;7.31;78.39;99503.63;4237018;27;20207;-80
2024/01/29 09:26:47;;;;;;;11.07;8.05;;;;;;;7.37;77.50;99500.84;4253983;27;20291;-80
2024/01/29 09:28:50;;;;;;;11.55;7.53;;;;;;;7.43;77.24;99498.00;4220157;28;20289;-81
2024/01/29 09:30:55;;;;;;;9.43;8.15;;;;;;;7.52;76.59;99501.16;4254238;27;20195;-80
2024/01/29 09:32:59;;;;;;;11.30;8.48;;;;;;;7.55;77.68;99506.25;4251260;27;20258;-80
2024/01/29 09:35:17;;;;;;;10.20;8.00;;;;;;;7.65;79.17;99512.81;4239665;27;20668;-81
2024/01/29 09:37:20;;;;;;;12.35;8.60;;;;;;;7.72;79.60;99514.31;4239734;27;20203;-80
2024/01/29 09:39:24;;;;;;;10.82;8.40;;;;;;;7.75;79.35;99516.78;4252649;27;20200;-80
2024/01/29 09:41:31;;;;;;;13.57;8.57;;;;;;;7.85;79.62;99520.75;4241263;27;20246;-80
2024/01/29 09:43:35;;;;;;;14.43;9.13;;;;;;;7.91;77.99;99525.72;4244885;27;20632;-80
2024/01/29 09:45:38;;;;;;;11.70;8.40;;;;;;;8.01;77.82;99521.03;4226382;28;20211;-81